Time;durP1;ratioP1;P1;durP2;ratioP2;P2;SDS_P1;SDS_P2;PMS_P1;PMS_P2;Temp;Humidity;BMP_temperature;BMP_pressure;BME280_temperature;BME280_humidity;BME280_pressure;Samples;Min_cycle;Max_cycle;Signal;HPM_P1;HPM_P2
2021/07/12 00:01:25;;;;;;;9.40;8.15;;;20.40;95.10;;;;;;4964466;28;20026;-69
2021/07/12 00:03:50;;;;;;;9.80;8.57;;;20.40;95.10;;;;;;4972201;28;20125;-69
2021/07/12 00:06:16;;;;;;;8.82;7.93;;;20.40;94.90;;;;;;4972274;28;20117;-68
2021/07/12 00:08:42;;;;;;;9.35;8.30;;;20.30;94.90;;;;;;4969545;28;20030;-68
2021/07/12 00:11:08;;;;;;;11.00;8.73;;;20.30;95.00;;;;;;4953434;28;20061;-68
2021/07/12 00:13:34;;;;;;;9.48;8.15;;;20.30;95.00;;;;;;4953389;29;20086;-68
2021/07/12 00:16:00;;;;;;;11.00;8.13;;;20.30;94.90;;;;;;4952214;29;20039;-68
2021/07/12 00:18:26;;;;;;;11.93;8.60;;;20.30;94.70;;;;;;4951925;29;20085;-68
2021/07/12 00:20:52;;;;;;;9.00;8.13;;;20.30;94.70;;;;;;4953017;28;20028;-67
2021/07/12 00:23:17;;;;;;;12.00;9.07;;;20.20;94.90;;;;;;4952833;29;20051;-68
2021/07/12 00:25:43;;;;;;;10.23;7.68;;;20.20;94.80;;;;;;4954284;28;20133;-69
2021/07/12 00:28:09;;;;;;;9.30;8.40;;;20.20;94.70;;;;;;4970803;28;20031;-69
2021/07/12 00:30:35;;;;;;;9.77;8.68;;;20.20;94.70;;;;;;4971599;28;20130;-68
2021/07/12 00:33:01;;;;;;;10.82;8.85;;;20.20;94.80;;;;;;4971841;28;20515;-69
2021/07/12 00:35:27;;;;;;;9.63;7.22;;;20.10;94.70;;;;;;4970469;28;20027;-68
2021/07/12 00:37:53;;;;;;;11.10;9.10;;;20.10;94.60;;;;;;4970667;28;20031;-69
2021/07/12 00:40:21;;;;;;;9.90;8.27;;;20.10;94.80;;;;;;4971550;28;20508;-68
2021/07/12 00:42:49;;;;;;;9.95;8.35;;;20.10;95.00;;;;;;4971811;28;20440;-68
2021/07/12 00:45:27;;;;;;;9.25;8.15;;;20.10;94.60;;;;;;4971676;28;20044;-68
2021/07/12 00:47:54;;;;;;;9.70;8.25;;;20.00;94.60;;;;;;4959126;28;20712;-68
2021/07/12 00:50:22;;;;;;;8.63;7.82;;;20.00;94.60;;;;;;4952172;28;20035;-68
2021/07/12 00:52:50;;;;;;;10.52;8.65;;;20.00;94.60;;;;;;4952324;28;20038;-68
2021/07/12 00:55:19;;;;;;;9.30;7.93;;;20.00;94.60;;;;;;4966059;28;20114;-69
2021/07/12 00:57:45;;;;;;;9.73;8.20;;;20.00;94.50;;;;;;4954300;28;20486;-66
2021/07/12 01:00:12;;;;;;;8.55;7.75;;;20.00;94.50;;;;;;4954050;28;20066;-68
2021/07/12 01:02:38;;;;;;;8.90;8.00;;;20.00;94.50;;;;;;4971439;28;20478;-68
2021/07/12 01:05:07;;;;;;;16.13;8.57;;;20.00;94.40;;;;;;4970215;28;20035;-69
2021/07/12 01:07:33;;;;;;;8.52;7.72;;;20.00;94.40;;;;;;4970785;28;20026;-67
2021/07/12 01:09:59;;;;;;;9.05;7.90;;;20.00;94.40;;;;;;4959009;28;20543;-69
2021/07/12 01:12:31;;;;;;;8.63;7.72;;;20.00;94.30;;;;;;4952406;29;20045;-68
2021/07/12 01:15:00;;;;;;;9.55;8.05;;;20.00;94.40;;;;;;4951091;28;20493;-68
2021/07/12 01:17:41;;;;;;;10.57;8.38;;;19.90;94.30;;;;;;4952314;28;20027;-67
2021/07/12 01:20:34;;;;;;;8.77;7.88;;;19.90;94.50;;;;;;4955765;29;20034;-67
2021/07/12 01:23:23;;;;;;;10.55;8.10;;;19.90;94.40;;;;;;4956176;29;20028;-68
2021/07/12 01:26:26;;;;;;;8.82;7.45;;;19.90;94.50;;;;;;4957901;28;20034;-69
2021/07/12 01:28:54;;;;;;;8.50;7.53;;;19.90;94.40;;;;;;4973839;28;20027;-67
2021/07/12 01:31:38;;;;;;;9.48;8.13;;;19.90;94.40;;;;;;4973709;28;20037;-68
2021/07/12 01:34:31;;;;;;;9.60;7.40;;;19.80;94.40;;;;;;4974914;28;20038;-68
2021/07/12 01:37:17;;;;;;;11.57;8.40;;;19.80;94.30;;;;;;4975023;28;20122;-68
2021/07/12 01:39:50;;;;;;;8.77;7.88;;;19.80;94.30;;;;;;4974624;28;20035;-68
2021/07/12 01:42:27;;;;;;;9.43;7.80;;;19.80;94.30;;;;;;4974975;28;20101;-67
2021/07/12 01:45:04;;;;;;;8.85;7.95;;;19.70;94.30;;;;;;4974343;28;20118;-68
2021/07/12 01:47:42;;;;;;;9.40;7.40;;;19.70;94.30;;;;;;4964843;28;20413;-66
2021/07/12 01:50:22;;;;;;;9.07;8.18;;;19.70;94.30;;;;;;4970315;28;20027;-68
2021/07/12 01:53:03;;;;;;;9.23;8.27;;;19.70;94.30;;;;;;4971879;28;20522;-68
2021/07/12 01:55:58;;;;;;;8.98;7.22;;;19.70;94.30;;;;;;4974427;28;20485;-68
2021/07/12 01:58:47;;;;;;;8.70;7.80;;;19.70;94.30;;;;;;4950661;28;20074;-68
2021/07/12 02:01:14;;;;;;;8.15;7.30;;;19.70;94.30;;;;;;4974427;28;20023;-67
2021/07/12 02:03:42;;;;;;;8.23;7.28;;;19.70;94.30;;;;;;4969795;28;20039;-68
2021/07/12 02:06:10;;;;;;;9.50;8.20;;;19.60;94.30;;;;;;4955100;29;20038;-68
2021/07/12 02:08:47;;;;;;;9.88;7.90;;;19.60;94.30;;;;;;4953984;28;20043;-68
2021/07/12 02:11:18;;;;;;;9.35;7.80;;;19.60;94.30;;;;;;4955074;28;20023;-68
2021/07/12 02:13:48;;;;;;;8.75;7.68;;;19.60;94.30;;;;;;4955127;28;20491;-68
2021/07/12 02:16:15;;;;;;;8.73;7.82;;;19.60;94.20;;;;;;4954328;28;20039;-67
2021/07/12 02:18:43;;;;;;;10.05;7.72;;;19.60;94.20;;;;;;4953793;28;20027;-66
2021/07/12 02:21:10;;;;;;;8.23;7.43;;;19.60;94.20;;;;;;4962554;28;20037;-68
2021/07/12 02:23:38;;;;;;;8.38;7.40;;;19.60;94.20;;;;;;4974085;28;20081;-68
2021/07/12 02:26:05;;;;;;;8.55;7.28;;;19.50;94.20;;;;;;4973956;28;20034;-68
2021/07/12 02:28:31;;;;;;;8.57;7.10;;;19.60;94.30;;;;;;4971987;28;20035;-68
2021/07/12 02:30:58;;;;;;;8.80;7.63;;;19.60;94.30;;;;;;4973451;28;20031;-68
2021/07/12 02:33:25;;;;;;;9.93;7.50;;;19.60;94.20;;;;;;4974000;28;20019;-68
2021/07/12 02:35:53;;;;;;;9.70;7.85;;;19.50;94.20;;;;;;4973706;28;20027;-68
2021/07/12 02:38:19;;;;;;;9.57;7.75;;;19.50;94.10;;;;;;4972864;28;20042;-68
2021/07/12 02:40:46;;;;;;;8.15;7.22;;;19.50;94.10;;;;;;4973751;28;20026;-68
2021/07/12 02:43:13;;;;;;;7.85;7.13;;;19.50;94.20;;;;;;4973665;28;20031;-67
2021/07/12 02:45:40;;;;;;;8.30;7.30;;;19.50;94.10;;;;;;4973554;28;20113;-67
2021/07/12 02:48:06;;;;;;;8.80;7.70;;;19.50;94.10;;;;;;4959262;28;20474;-67
2021/07/12 02:50:32;;;;;;;10.43;7.75;;;19.50;94.10;;;;;;4971399;28;20031;-66
2021/07/12 02:53:10;;;;;;;8.50;7.20;;;19.50;94.20;;;;;;4951865;28;20497;-67
2021/07/12 02:55:36;;;;;;;9.35;6.85;;;19.50;94.10;;;;;;4962210;28;20547;-68
2021/07/12 02:58:02;;;;;;;9.10;7.82;;;19.50;94.10;;;;;;4972470;28;20493;-68
2021/07/12 03:00:27;;;;;;;8.77;7.78;;;19.40;94.00;;;;;;4973428;28;20038;-68
2021/07/12 03:02:53;;;;;;;8.45;7.55;;;19.40;94.10;;;;;;4973468;28;20033;-68
2021/07/12 03:05:19;;;;;;;8.48;7.22;;;19.40;94.10;;;;;;4955501;28;20035;-68
2021/07/12 03:08:11;;;;;;;8.73;7.80;;;19.40;94.20;;;;;;4953123;29;20362;-67
2021/07/12 03:10:43;;;;;;;8.82;7.60;;;19.30;94.20;;;;;;4953648;28;20162;-68
2021/07/12 03:13:14;;;;;;;8.57;7.38;;;19.30;94.20;;;;;;4954108;29;20465;-67
2021/07/12 03:15:42;;;;;;;8.95;7.55;;;19.30;94.20;;;;;;4952717;29;20117;-67
2021/07/12 03:18:29;;;;;;;7.65;6.93;;;19.30;94.30;;;;;;4952704;29;20398;-68
2021/07/12 03:20:59;;;;;;;9.07;7.80;;;19.30;94.20;;;;;;4959790;28;20046;-67
2021/07/12 03:23:27;;;;;;;8.13;7.20;;;19.20;94.30;;;;;;4973172;28;20030;-68
2021/07/12 03:26:04;;;;;;;11.07;7.53;;;19.30;94.30;;;;;;4973037;28;20106;-68
2021/07/12 03:28:31;;;;;;;8.40;6.78;;;19.30;94.20;;;;;;4972071;28;20055;-67
2021/07/12 03:30:58;;;;;;;11.95;7.90;;;19.20;94.20;;;;;;4972762;28;20047;-68
2021/07/12 03:33:26;;;;;;;9.25;7.38;;;19.20;94.20;;;;;;4972934;28;20034;-66
2021/07/12 03:35:53;;;;;;;8.35;7.35;;;19.30;94.20;;;;;;4972556;28;20059;-68
2021/07/12 03:38:21;;;;;;;8.32;7.43;;;19.20;94.10;;;;;;4971537;28;20031;-68
2021/07/12 03:40:48;;;;;;;7.85;7.13;;;19.20;94.20;;;;;;4972363;28;20081;-68
2021/07/12 03:43:16;;;;;;;8.20;7.40;;;19.20;94.20;;;;;;4972729;28;20030;-68
2021/07/12 03:45:43;;;;;;;7.75;6.90;;;19.20;94.30;;;;;;4972193;28;20541;-66
2021/07/12 03:48:09;;;;;;;8.63;7.28;;;19.20;94.20;;;;;;4957826;28;20031;-68
2021/07/12 03:50:35;;;;;;;7.88;7.07;;;19.20;94.20;;;;;;4952742;28;20026;-67
2021/07/12 03:53:02;;;;;;;14.25;7.60;;;19.20;94.30;;;;;;4950527;29;20035;-67
2021/07/12 03:55:30;;;;;;;10.13;7.45;;;19.20;94.30;;;;;;4960053;28;20393;-69
2021/07/12 03:57:58;;;;;;;10.15;7.72;;;19.20;94.20;;;;;;4971116;28;20623;-71
2021/07/12 04:00:26;;;;;;;8.93;7.70;;;19.20;94.40;;;;;;4972378;28;20031;-67
2021/07/12 04:02:52;;;;;;;11.10;8.25;;;19.20;94.30;;;;;;4972750;28;20027;-68
2021/07/12 04:05:23;;;;;;;9.68;7.70;;;19.20;94.30;;;;;;4954957;28;20027;-68
2021/07/12 04:07:49;;;;;;;;;;;19.20;94.30;;;;;;4952376;28;20094;-68
2021/07/12 04:10:17;;;;;;;11.90;7.35;;;19.20;94.20;;;;;;4953046;28;20274;-67
2021/07/12 04:12:44;;;;;;;10.35;8.55;;;19.20;94.30;;;;;;4953117;29;20035;-67
2021/07/12 04:15:14;;;;;;;9.55;7.88;;;19.30;94.40;;;;;;4951892;29;20526;-69
2021/07/12 04:17:41;;;;;;;9.02;8.02;;;19.20;94.30;;;;;;4951581;28;20031;-69
2021/07/12 04:20:08;;;;;;;11.32;7.80;;;19.20;94.30;;;;;;4952837;28;20056;-67
2021/07/12 04:22:33;;;;;;;10.60;7.68;;;19.20;94.30;;;;;;4971892;28;20104;-68
2021/07/12 04:24:59;;;;;;;8.93;7.00;;;19.20;94.30;;;;;;4971560;28;20477;-68
2021/07/12 04:27:25;;;;;;;10.23;7.30;;;19.20;94.40;;;;;;4970835;28;20042;-68
2021/07/12 04:29:51;;;;;;;8.00;7.15;;;19.20;94.30;;;;;;4971465;28;20126;-69
2021/07/12 04:32:16;;;;;;;9.63;7.15;;;19.20;94.30;;;;;;4971997;28;20053;-68
2021/07/12 04:34:42;;;;;;;8.38;6.97;;;19.20;94.30;;;;;;4971745;28;20038;-67
2021/07/12 04:37:08;;;;;;;9.38;7.10;;;19.20;94.20;;;;;;4971493;28;20493;-68
2021/07/12 04:39:34;;;;;;;10.48;7.60;;;19.30;94.20;;;;;;4971010;28;20038;-68
2021/07/12 04:42:00;;;;;;;11.55;7.65;;;19.30;94.10;;;;;;4971627;28;20074;-69
2021/07/12 04:44:26;;;;;;;10.50;7.40;;;19.30;94.20;;;;;;4971761;28;20058;-68
2021/07/12 04:46:53;;;;;;;7.90;7.10;;;19.30;94.20;;;;;;4964799;28;20430;-68
2021/07/12 04:49:18;;;;;;;8.43;7.18;;;19.30;94.20;;;;;;4962036;28;20031;-68
2021/07/12 04:51:45;;;;;;;9.05;6.78;;;19.30;94.20;;;;;;4955404;28;20054;-68
2021/07/12 04:54:11;;;;;;;9.20;7.45;;;19.40;94.20;;;;;;4956036;29;20058;-68
2021/07/12 04:56:37;;;;;;;8.80;6.80;;;19.40;94.00;;;;;;4972224;28;20505;-68
2021/07/12 04:59:06;;;;;;;9.05;7.47;;;19.40;94.00;;;;;;4974327;28;20031;-68
2021/07/12 05:01:33;;;;;;;8.05;7.03;;;19.50;94.00;;;;;;4975483;28;20031;-69
2021/07/12 05:04:00;;;;;;;7.30;6.60;;;19.50;94.00;;;;;;4968374;28;20497;-68
2021/07/12 05:06:27;;;;;;;8.52;7.03;;;19.50;93.90;;;;;;4956939;28;20498;-68
2021/07/12 05:08:52;;;;;;;11.32;7.60;;;19.60;94.10;;;;;;4954731;29;20526;-69
2021/07/12 05:11:18;;;;;;;8.00;6.82;;;19.60;94.00;;;;;;4956261;28;20035;-67
2021/07/12 05:13:44;;;;;;;9.45;7.65;;;19.60;94.00;;;;;;4956028;29;20086;-68
2021/07/12 05:16:11;;;;;;;8.88;6.85;;;19.60;93.90;;;;;;4954863;28;20490;-68
2021/07/12 05:18:38;;;;;;;8.73;7.22;;;19.70;93.90;;;;;;4954757;29;20054;-69
2021/07/12 05:21:04;;;;;;;9.75;7.32;;;19.70;93.80;;;;;;4962992;28;20077;-69
2021/07/12 05:23:30;;;;;;;8.27;7.35;;;19.70;93.80;;;;;;4975033;28;20026;-69
2021/07/12 05:25:56;;;;;;;8.15;7.35;;;19.70;93.80;;;;;;4975246;28;20513;-69
2021/07/12 05:28:22;;;;;;;8.40;7.45;;;19.70;93.80;;;;;;4972730;28;20058;-68
2021/07/12 05:30:49;;;;;;;9.18;7.47;;;19.70;93.80;;;;;;4974097;28;20031;-69
2021/07/12 05:33:15;;;;;;;8.82;6.97;;;19.80;93.70;;;;;;4975247;28;20066;-69
2021/07/12 05:35:41;;;;;;;9.07;7.25;;;19.80;93.60;;;;;;4975516;28;20023;-67
2021/07/12 05:38:07;;;;;;;9.57;7.63;;;19.80;93.60;;;;;;4973720;28;20026;-67
2021/07/12 05:40:33;;;;;;;8.95;7.13;;;19.90;93.60;;;;;;4974750;28;20023;-68
2021/07/12 05:43:00;;;;;;;8.05;7.28;;;19.90;93.60;;;;;;4974887;28;20027;-68
2021/07/12 05:45:26;;;;;;;9.02;7.82;;;19.90;93.50;;;;;;4973489;28;20027;-69
2021/07/12 05:47:52;;;;;;;8.38;7.07;;;20.00;93.40;;;;;;4962379;28;20066;-68
2021/07/12 05:50:17;;;;;;;11.93;7.78;;;20.00;93.40;;;;;;4971985;28;20441;-68
2021/07/12 05:52:43;;;;;;;7.05;6.35;;;20.10;93.50;;;;;;4949921;28;20683;-67
2021/07/12 05:55:10;;;;;;;9.55;7.57;;;20.10;93.40;;;;;;4959970;28;20038;-69
2021/07/12 05:57:36;;;;;;;9.15;7.20;;;20.10;93.30;;;;;;4973719;28;20031;-67
2021/07/12 06:00:05;;;;;;;8.93;7.47;;;20.20;93.30;;;;;;4974809;28;20030;-68
2021/07/12 06:02:30;;;;;;;8.55;7.18;;;20.20;93.20;;;;;;4974855;28;20030;-68
2021/07/12 06:04:56;;;;;;;10.48;7.30;;;20.30;93.20;;;;;;4959823;28;20035;-67
2021/07/12 06:07:22;;;;;;;7.15;6.45;;;20.30;93.10;;;;;;4954390;28;20094;-67
2021/07/12 06:09:48;;;;;;;8.98;6.93;;;20.40;93.00;;;;;;4955110;28;20049;-67
2021/07/12 06:12:13;;;;;;;8.35;7.53;;;20.40;93.00;;;;;;4955223;29;20512;-69
2021/07/12 06:14:39;;;;;;;10.23;7.80;;;20.40;92.90;;;;;;4954050;29;20041;-68
2021/07/12 06:17:05;;;;;;;8.27;7.28;;;20.40;92.70;;;;;;4954506;28;20098;-68
2021/07/12 06:19:31;;;;;;;9.32;7.45;;;20.40;92.80;;;;;;4954011;29;20039;-68
2021/07/12 06:21:56;;;;;;;10.30;7.35;;;20.50;92.70;;;;;;4969336;28;20485;-68
2021/07/12 06:24:22;;;;;;;7.88;6.28;;;20.50;92.70;;;;;;4974163;28;20038;-68
2021/07/12 06:26:48;;;;;;;9.50;6.88;;;20.60;92.60;;;;;;4973873;28;20138;-68
2021/07/12 06:29:14;;;;;;;8.90;7.93;;;20.70;92.50;;;;;;4972785;28;20540;-69
2021/07/12 06:31:40;;;;;;;7.57;6.88;;;20.80;92.40;;;;;;4973811;28;20097;-68
2021/07/12 06:34:05;;;;;;;8.30;7.22;;;20.90;92.40;;;;;;4973820;28;20034;-68
2021/07/12 06:36:31;;;;;;;8.95;7.13;;;20.90;92.20;;;;;;4956060;28;20464;-68
2021/07/12 06:38:57;;;;;;;9.15;7.88;;;20.90;92.10;;;;;;4972780;28;20045;-69
2021/07/12 06:41:23;;;;;;;8.43;7.63;;;20.90;91.90;;;;;;4973846;28;20027;-68
2021/07/12 06:43:51;;;;;;;8.55;7.75;;;21.00;92.00;;;;;;4973908;28;20113;-69
2021/07/12 06:46:17;;;;;;;8.40;7.38;;;21.10;91.80;;;;;;4971197;28;20043;-66
2021/07/12 06:48:43;;;;;;;8.05;7.25;;;21.10;91.90;;;;;;4960831;28;20469;-67
2021/07/12 06:51:09;;;;;;;8.07;7.07;;;21.10;91.80;;;;;;4964312;28;20070;-67
2021/07/12 06:53:35;;;;;;;8.35;7.18;;;21.20;91.60;;;;;;4954354;29;20090;-68
2021/07/12 06:56:02;;;;;;;8.60;7.32;;;21.20;91.60;;;;;;4965904;28;20069;-68
2021/07/12 06:58:28;;;;;;;8.55;7.65;;;21.20;91.60;;;;;;4972195;28;20023;-68
2021/07/12 07:00:53;;;;;;;8.15;7.35;;;21.30;91.60;;;;;;4973259;28;20031;-68
2021/07/12 07:03:19;;;;;;;7.07;6.38;;;21.30;91.50;;;;;;4971664;28;20023;-68
2021/07/12 07:05:44;;;;;;;9.15;7.50;;;21.40;91.40;;;;;;4952532;29;20027;-68
2021/07/12 07:08:11;;;;;;;8.55;7.25;;;21.50;91.30;;;;;;4952996;28;20035;-69
2021/07/12 07:10:37;;;;;;;9.20;8.10;;;21.50;91.00;;;;;;4953682;28;20182;-68
2021/07/12 07:13:02;;;;;;;7.80;7.05;;;21.50;91.00;;;;;;4953976;29;20529;-68
2021/07/12 07:15:28;;;;;;;8.52;7.15;;;21.50;90.90;;;;;;4952355;28;20110;-68
2021/07/12 07:17:55;;;;;;;8.10;6.88;;;21.60;91.00;;;;;;4952747;29;20513;-68
2021/07/12 07:20:21;;;;;;;9.90;7.43;;;21.60;90.70;;;;;;4955112;28;20031;-68
2021/07/12 07:22:47;;;;;;;10.38;7.80;;;21.70;90.60;;;;;;4973020;28;20046;-68
2021/07/12 07:25:14;;;;;;;8.57;7.68;;;21.70;90.40;;;;;;4972953;28;20023;-68
2021/07/12 07:27:40;;;;;;;8.13;7.35;;;21.80;90.30;;;;;;4971746;28;20082;-69
2021/07/12 07:30:07;;;;;;;7.78;7.03;;;21.90;90.30;;;;;;4972591;28;20711;-68
2021/07/12 07:32:33;;;;;;;7.82;7.05;;;21.90;90.30;;;;;;4973134;28;20038;-69
2021/07/12 07:34:59;;;;;;;10.60;7.45;;;22.00;90.20;;;;;;4972776;28;20155;-68
2021/07/12 07:37:24;;;;;;;8.50;7.30;;;22.10;90.20;;;;;;4971352;28;20070;-67
2021/07/12 07:39:50;;;;;;;7.90;6.97;;;22.10;90.00;;;;;;4972343;28;20031;-69
2021/07/12 07:42:16;;;;;;;8.15;7.25;;;22.20;89.70;;;;;;4972811;28;20058;-68
2021/07/12 07:44:42;;;;;;;8.07;7.38;;;22.20;89.20;;;;;;4972686;28;20065;-68
2021/07/12 07:47:09;;;;;;;7.82;6.88;;;22.30;89.80;;;;;;4966120;28;20359;-68
2021/07/12 07:49:35;;;;;;;7.57;6.88;;;22.40;89.70;;;;;;4964191;28;20042;-69
2021/07/12 07:52:01;;;;;;;7.80;7.00;;;22.40;89.40;;;;;;4956838;28;20102;-68
2021/07/12 07:54:27;;;;;;;8.48;7.18;;;22.50;89.60;;;;;;4953315;29;20631;-69
2021/07/12 07:56:53;;;;;;;8.40;7.03;;;22.60;89.40;;;;;;4971423;28;20619;-68
2021/07/12 07:59:18;;;;;;;7.75;7.05;;;22.70;89.40;;;;;;4971279;28;20094;-68
2021/07/12 08:01:45;;;;;;;7.22;6.47;;;22.80;88.50;;;;;;4972465;28;20033;-69
2021/07/12 08:04:11;;;;;;;7.72;7.03;;;22.80;88.20;;;;;;4963974;28;20031;-69
2021/07/12 08:06:37;;;;;;;9.38;7.03;;;22.90;88.40;;;;;;4953651;29;20042;-69
2021/07/12 08:09:03;;;;;;;7.20;6.50;;;22.90;87.90;;;;;;4952240;29;20058;-68
2021/07/12 08:11:31;;;;;;;7.82;7.03;;;23.00;87.60;;;;;;4953353;28;20063;-69
2021/07/12 08:13:57;;;;;;;8.88;7.15;;;22.90;87.00;;;;;;4952370;29;20459;-66
2021/07/12 08:16:22;;;;;;;7.50;6.70;;;23.00;87.00;;;;;;4952160;29;20110;-68
2021/07/12 08:18:48;;;;;;;7.28;6.57;;;23.00;87.10;;;;;;4951458;29;20031;-68
2021/07/12 08:21:14;;;;;;;8.25;7.45;;;23.00;87.30;;;;;;4961578;28;20046;-69
2021/07/12 08:23:42;;;;;;;7.65;6.55;;;23.10;87.20;;;;;;4972222;28;20062;-68
2021/07/12 08:26:09;;;;;;;7.43;6.63;;;23.20;86.80;;;;;;4971918;28;20077;-68
2021/07/12 08:28:35;;;;;;;9.82;6.70;;;23.20;86.80;;;;;;4970421;28;20064;-69
2021/07/12 08:31:01;;;;;;;9.18;6.80;;;23.30;86.20;;;;;;4971799;28;20066;-69
2021/07/12 08:33:26;;;;;;;7.35;6.65;;;23.30;84.90;;;;;;4972064;28;20497;-68
2021/07/12 08:35:53;;;;;;;8.30;7.50;;;23.40;85.70;;;;;;4972179;28;20041;-68
2021/07/12 08:38:18;;;;;;;8.18;7.22;;;23.40;85.90;;;;;;4970818;28;20117;-69
2021/07/12 08:40:44;;;;;;;7.75;6.95;;;23.50;85.80;;;;;;4971939;28;20065;-68
2021/07/12 08:43:12;;;;;;;7.88;6.55;;;23.70;86.00;;;;;;4972074;28;20448;-67
2021/07/12 08:45:37;;;;;;;7.95;7.15;;;23.80;84.90;;;;;;4971845;28;20129;-69
2021/07/12 08:48:05;;;;;;;8.82;6.45;;;23.90;84.90;;;;;;4957705;28;20088;-69
2021/07/12 08:50:31;;;;;;;7.18;6.47;;;24.10;83.30;;;;;;4969556;28;20502;-68
2021/07/12 08:52:57;;;;;;;6.85;6.22;;;24.20;83.80;;;;;;4949489;28;20113;-69
2021/07/12 08:55:23;;;;;;;7.45;6.55;;;24.40;82.40;;;;;;4958454;28;20087;-68
2021/07/12 08:58:11;;;;;;;6.57;5.97;;;24.40;82.20;;;;;;4970254;28;20045;-68
2021/07/12 09:00:44;;;;;;;7.18;6.47;;;24.50;82.00;;;;;;4971523;28;20027;-69
2021/07/12 09:03:28;;;;;;;8.05;6.32;;;24.50;81.80;;;;;;4971400;28;20035;-68
2021/07/12 09:06:08;;;;;;;7.25;6.55;;;24.50;81.90;;;;;;4951211;29;20520;-69
2021/07/12 09:08:46;;;;;;;8.02;6.80;;;24.50;82.10;;;;;;4934802;28;20382;-69
2021/07/12 09:11:30;;;;;;;7.40;6.30;;;24.50;82.10;;;;;;4952545;29;20027;-68
2021/07/12 09:14:26;;;;;;;7.15;6.50;;;24.70;81.80;;;;;;4956882;28;20051;-68
2021/07/12 09:16:55;;;;;;;7.43;6.53;;;24.80;82.10;;;;;;4909009;29;20147;-68
2021/07/12 09:19:29;;;;;;;6.95;6.35;;;25.00;81.40;;;;;;4909129;29;20044;-68
2021/07/12 09:22:05;;;;;;;7.65;6.47;;;25.10;80.60;;;;;;4929289;29;20040;-67
2021/07/12 09:24:53;;;;;;;6.40;5.90;;;25.20;80.40;;;;;;4932675;29;20202;-68
2021/07/12 09:27:25;;;;;;;7.70;5.97;;;25.30;80.20;;;;;;4930676;29;20047;-69
2021/07/12 09:29:57;;;;;;;7.10;6.18;;;25.10;79.20;;;;;;4930458;29;20047;-67
2021/07/12 09:32:27;;;;;;;7.38;6.68;;;25.00;79.80;;;;;;4931159;29;20418;-67
2021/07/12 09:35:00;;;;;;;6.72;6.13;;;24.90;80.40;;;;;;4930368;29;20036;-68
2021/07/12 09:37:26;;;;;;;6.28;5.68;;;24.80;80.90;;;;;;4929442;29;20078;-68
2021/07/12 09:39:53;;;;;;;6.15;5.55;;;24.70;80.70;;;;;;4933183;29;20394;-67
2021/07/12 09:42:22;;;;;;;7.20;6.00;;;24.70;80.50;;;;;;4934006;29;20483;-67
2021/07/12 09:44:54;;;;;;;7.25;5.50;;;24.70;80.40;;;;;;4933709;29;20040;-67
2021/07/12 09:47:23;;;;;;;5.90;5.30;;;24.80;80.50;;;;;;4932804;29;20078;-67
2021/07/12 09:49:50;;;;;;;6.20;5.60;;;25.00;79.80;;;;;;4934005;29;20035;-67
2021/07/12 09:52:19;;;;;;;6.05;5.43;;;25.10;79.00;;;;;;4928538;29;20043;-69
2021/07/12 09:54:47;;;;;;;6.55;5.95;;;25.30;78.50;;;;;;4956935;28;20056;-67
2021/07/12 09:57:21;;;;;;;6.82;5.40;;;25.40;77.40;;;;;;4973865;28;20062;-67
2021/07/12 09:59:58;;;;;;;5.57;5.07;;;25.60;78.00;;;;;;4974866;28;20034;-68
2021/07/12 10:02:26;;;;;;;7.97;5.95;;;25.80;78.00;;;;;;4974845;28;20038;-67
2021/07/12 10:05:14;;;;;;;7.63;5.80;;;26.00;76.70;;;;;;4960684;28;20058;-67
2021/07/12 10:07:40;;;;;;;6.47;5.63;;;26.10;76.40;;;;;;4954090;29;20035;-67
2021/07/12 10:10:13;;;;;;;8.73;6.13;;;26.20;76.70;;;;;;4955467;28;20053;-67
2021/07/12 10:12:46;;;;;;;6.28;5.68;;;26.30;76.60;;;;;;4955274;29;20031;-68
2021/07/12 10:15:14;;;;;;;7.03;5.70;;;26.40;74.90;;;;;;4951973;28;20053;-67
2021/07/12 10:17:41;;;;;;;8.55;5.55;;;26.50;75.00;;;;;;4953970;29;20035;-67
2021/07/12 10:20:07;;;;;;;5.70;5.20;;;26.40;74.30;;;;;;4935364;29;20041;-67
2021/07/12 10:22:37;;;;;;;6.22;5.32;;;26.40;71.80;;;;;;4955075;29;20103;-67
2021/07/12 10:25:12;;;;;;;5.45;4.93;;;26.20;73.10;;;;;;4954750;29;20094;-67
2021/07/12 10:27:48;;;;;;;5.40;4.90;;;26.20;73.50;;;;;;4953707;29;20505;-68
2021/07/12 10:30:50;;;;;;;5.38;4.90;;;26.10;73.60;;;;;;4954845;28;20039;-68
2021/07/12 10:33:18;;;;;;;6.63;4.95;;;26.20;74.30;;;;;;4937537;29;20031;-67
2021/07/12 10:35:54;;;;;;;5.80;5.30;;;26.20;73.10;;;;;;4954904;29;20408;-67
2021/07/12 10:38:26;;;;;;;6.03;5.43;;;26.20;72.60;;;;;;4953602;29;20090;-69
2021/07/12 10:41:01;;;;;;;6.47;5.68;;;26.40;73.30;;;;;;4954778;28;20070;-68
2021/07/12 10:43:33;;;;;;;6.80;6.05;;;26.60;73.70;;;;;;4954400;29;20066;-67
2021/07/12 10:46:00;;;;;;;6.90;6.32;;;26.60;73.90;;;;;;4954574;29;20094;-67
2021/07/12 10:48:42;;;;;;;6.10;5.60;;;26.70;73.90;;;;;;4962895;28;20106;-67
2021/07/12 10:51:20;;;;;;;6.88;6.18;;;26.70;74.60;;;;;;4963345;28;20023;-68
2021/07/12 10:54:10;;;;;;;7.85;6.30;;;26.80;74.60;;;;;;4951481;28;20553;-68
2021/07/12 10:56:50;;;;;;;6.70;6.05;;;26.90;72.80;;;;;;4970992;28;20027;-69
2021/07/12 10:59:31;;;;;;;6.63;6.00;;;26.90;73.80;;;;;;4972861;28;20035;-68
2021/07/12 11:01:59;;;;;;;6.85;6.25;;;27.00;73.10;;;;;;4973253;28;20036;-69
2021/07/12 11:04:32;;;;;;;6.38;5.75;;;27.00;72.50;;;;;;4962776;28;20089;-69
2021/07/12 11:06:59;;;;;;;5.78;5.28;;;27.00;71.80;;;;;;4953476;29;20485;-69
2021/07/12 11:09:48;;;;;;;6.20;5.60;;;26.90;71.20;;;;;;4953373;28;20795;-69
2021/07/12 11:12:26;;;;;;;6.60;6.00;;;26.70;71.80;;;;;;4954101;29;20039;-69
2021/07/12 11:15:18;;;;;;;9.07;6.07;;;26.60;71.90;;;;;;4951098;28;20516;-68
2021/07/12 11:17:52;;;;;;;6.78;6.18;;;26.60;72.80;;;;;;4953070;28;20442;-67
2021/07/12 11:20:42;;;;;;;7.03;6.40;;;26.80;73.70;;;;;;4953438;28;20035;-68
2021/07/12 11:23:08;;;;;;;5.93;5.40;;;27.10;73.20;;;;;;4973527;28;20500;-68
2021/07/12 11:25:42;;;;;;;7.05;5.50;;;27.20;70.80;;;;;;4955886;28;20452;-68
2021/07/12 11:28:11;;;;;;;6.03;5.47;;;27.30;69.90;;;;;;4971921;28;20027;-68
2021/07/12 11:30:37;;;;;;;5.45;4.60;;;27.40;71.20;;;;;;4972831;28;20050;-68
2021/07/12 11:33:03;;;;;;;6.65;4.68;;;27.80;71.20;;;;;;4973019;28;20503;-69
2021/07/12 11:35:29;;;;;;;4.70;4.30;;;28.20;66.50;;;;;;4972876;28;20034;-68
2021/07/12 11:38:05;;;;;;;5.25;4.75;;;29.00;64.70;;;;;;4971727;28;20039;-68
2021/07/12 11:40:31;;;;;;;4.63;4.22;;;30.10;63.90;;;;;;4972628;28;20030;-68
2021/07/12 11:42:57;;;;;;;4.70;4.18;;;31.60;56.40;;;;;;4972765;28;20034;-68
2021/07/12 11:45:23;;;;;;;4.72;4.32;;;31.60;55.90;;;;;;4972726;28;20034;-68
2021/07/12 11:47:57;;;;;;;4.45;4.10;;;32.10;56.20;;;;;;4966282;28;20039;-68
2021/07/12 11:50:24;;;;;;;5.45;4.43;;;32.40;51.60;;;;;;4955398;28;20438;-69
2021/07/12 11:52:54;;;;;;;5.07;4.40;;;32.70;51.20;;;;;;4951523;29;20525;-69
2021/07/12 11:55:39;;;;;;;4.30;3.90;;;32.20;50.80;;;;;;4959145;28;20034;-68
2021/07/12 11:58:06;;;;;;;5.78;4.00;;;31.40;52.20;;;;;;4971554;28;20022;-68
2021/07/12 12:00:32;;;;;;;4.55;3.88;;;30.70;53.50;;;;;;4972528;28;20495;-67
2021/07/12 12:03:17;;;;;;;5.20;4.72;;;30.70;54.80;;;;;;4971558;28;20037;-67
2021/07/12 12:06:01;;;;;;;8.73;4.07;;;31.10;52.80;;;;;;4953592;29;20404;-68
2021/07/12 12:08:26;;;;;;;4.10;3.75;;;31.20;52.40;;;;;;4951932;29;20042;-68
2021/07/12 12:10:54;;;;;;;4.47;4.07;;;30.70;52.10;;;;;;4952970;28;20035;-68
2021/07/12 12:13:21;;;;;;;8.40;4.07;;;30.20;54.10;;;;;;4953042;28;20039;-68
2021/07/12 12:15:51;;;;;;;4.32;3.92;;;29.80;54.40;;;;;;4951496;29;20401;-67
2021/07/12 12:18:21;;;;;;;4.65;4.07;;;29.50;55.40;;;;;;4948611;28;20047;-69
2021/07/12 12:20:49;;;;;;;4.47;3.92;;;29.20;56.90;;;;;;4957657;28;20045;-69
2021/07/12 12:23:16;;;;;;;4.40;4.00;;;28.80;57.10;;;;;;4972190;28;20031;-68
2021/07/12 12:25:45;;;;;;;4.50;4.10;;;28.40;58.00;;;;;;4972004;28;20054;-68
2021/07/12 12:28:43;;;;;;;4.75;4.13;;;28.20;58.20;;;;;;4971094;28;20031;-68
2021/07/12 12:31:15;;;;;;;4.57;4.18;;;27.80;59.60;;;;;;4960375;28;20130;-68
2021/07/12 12:34:02;;;;;;;4.00;3.70;;;27.60;61.90;;;;;;4972370;28;20097;-68
2021/07/12 12:36:32;;;;;;;4.03;3.72;;;27.30;60.80;;;;;;4971969;28;20510;-68
2021/07/12 12:39:01;;;;;;;5.00;4.00;;;27.20;61.70;;;;;;4971305;28;20031;-68
2021/07/12 12:41:31;;;;;;;4.45;4.05;;;27.20;62.30;;;;;;4971999;28;20042;-67
2021/07/12 12:44:00;;;;;;;4.55;4.15;;;27.40;61.90;;;;;;4972179;28;20114;-68
2021/07/12 12:46:25;;;;;;;4.90;4.40;;;27.40;62.00;;;;;;4971203;28;20512;-68
2021/07/12 12:48:51;;;;;;;4.68;4.28;;;27.70;62.10;;;;;;4960830;28;20058;-68
2021/07/12 12:51:19;;;;;;;4.90;4.50;;;28.20;61.50;;;;;;4961482;28;20102;-68
2021/07/12 12:53:45;;;;;;;5.05;4.60;;;28.30;61.30;;;;;;4950062;28;20039;-68
2021/07/12 12:56:11;;;;;;;5.10;4.10;;;28.10;61.90;;;;;;4965196;28;20035;-67
2021/07/12 12:58:36;;;;;;;5.25;4.75;;;27.70;62.80;;;;;;4970779;28;20034;-68